createdAt,value
2023-03-16T00:00:43.683Z,9.747482
2023-03-16T00:01:43.693Z,9.747466
2023-03-16T00:02:43.708Z,9.747398
2023-03-16T00:03:43.690Z,9.747330
2023-03-16T00:04:43.695Z,9.747503
2023-03-16T00:05:43.639Z,9.747352
2023-03-16T00:06:43.648Z,9.747499
2023-03-16T00:07:43.631Z,9.747657
2023-03-16T00:08:43.664Z,9.747839
2023-03-16T00:09:43.620Z,9.748004
2023-03-16T00:10:43.613Z,9.747149
2023-03-16T00:11:43.612Z,9.747104
2023-03-16T00:12:43.869Z,9.747085
2023-03-16T00:13:43.620Z,9.747067
2023-03-16T00:14:43.589Z,9.746767
2023-03-16T00:15:43.586Z,9.747373
2023-03-16T00:16:43.601Z,9.747505
2023-03-16T00:17:43.562Z,9.747155
2023-03-16T00:18:43.559Z,9.747221
2023-03-16T00:19:43.575Z,9.748000
2023-03-16T00:20:43.540Z,9.747992
2023-03-16T00:21:43.542Z,9.747769
2023-03-16T00:22:43.534Z,9.747946
2023-03-16T00:23:43.592Z,9.747819
2023-03-16T00:24:43.552Z,9.748187
2023-03-16T00:25:43.504Z,9.747787
2023-03-16T00:26:43.498Z,9.747908
2023-03-16T00:27:43.504Z,9.747596
2023-03-16T00:28:43.506Z,9.747614
2023-03-16T00:29:43.511Z,9.747461
2023-03-16T00:30:43.471Z,9.747479
2023-03-16T00:31:43.472Z,9.747539
2023-03-16T00:32:43.514Z,9.747443
2023-03-16T00:33:43.454Z,9.747384
2023-03-16T00:34:43.466Z,9.747478
2023-03-16T00:35:43.434Z,9.747484
2023-03-16T00:36:43.424Z,9.747444
2023-03-16T00:37:43.448Z,9.747301
2023-03-16T00:38:43.408Z,9.747290
2023-03-16T00:39:43.428Z,9.747169
2023-03-16T00:40:43.399Z,9.747324
2023-03-16T00:41:43.384Z,9.747287
2023-03-16T00:42:43.382Z,9.747147
2023-03-16T00:43:43.386Z,9.747310
2023-03-16T00:44:43.394Z,9.747348
2023-03-16T00:45:43.409Z,9.747238
2023-03-16T00:46:43.356Z,9.747436
2023-03-16T00:47:43.353Z,9.747343
2023-03-16T00:48:43.337Z,9.747360
2023-03-16T00:49:43.347Z,9.747313
2023-03-16T00:50:43.339Z,9.747478
2023-03-16T00:51:43.316Z,9.747336
2023-03-16T00:52:43.308Z,9.747271
2023-03-16T00:53:43.306Z,9.747290
2023-03-16T00:54:43.357Z,9.747513
2023-03-16T00:55:43.282Z,9.747440
2023-03-16T00:56:43.283Z,9.747430
2023-03-16T00:57:43.281Z,9.747428
2023-03-16T00:58:43.416Z,9.747307
2023-03-16T00:59:43.284Z,9.747498
2023-03-16T01:00:43.250Z,9.747535
2023-03-16T01:01:43.244Z,9.747394
2023-03-16T01:02:43.245Z,9.747476
2023-03-16T01:03:44.245Z,9.747413
2023-03-16T01:04:43.269Z,9.747344
2023-03-16T01:05:43.223Z,9.747387
2023-03-16T01:06:43.202Z,9.747369
2023-03-16T01:07:43.199Z,9.747437
2023-03-16T01:08:43.196Z,9.747619
2023-03-16T01:09:43.214Z,9.747553
2023-03-16T01:10:43.203Z,9.747433
2023-03-16T01:11:43.175Z,9.747381
2023-03-16T01:12:43.163Z,9.747414
2023-03-16T01:13:43.146Z,9.747466
2023-03-16T01:14:43.242Z,9.747472
2023-03-16T01:15:43.157Z,9.747430
2023-03-16T01:16:43.169Z,9.747400
2023-03-16T01:17:43.131Z,9.747410
2023-03-16T01:18:43.122Z,9.747353
2023-03-16T01:19:43.139Z,9.747418
2023-03-16T01:20:43.110Z,9.747403
2023-03-16T01:21:43.109Z,9.747239
2023-03-16T01:22:43.122Z,9.747244
2023-03-16T01:23:43.096Z,9.747403
2023-03-16T01:24:43.105Z,9.747407
2023-03-16T01:25:43.074Z,9.747318
2023-03-16T01:26:43.081Z,9.747366
2023-03-16T01:27:43.164Z,9.747399
2023-03-16T01:28:43.051Z,9.747431
2023-03-16T01:29:43.071Z,9.747323
2023-03-16T01:30:43.112Z,9.747413
2023-03-16T01:31:43.798Z,9.747384
2023-03-16T01:32:43.077Z,9.747604
2023-03-16T01:33:43.035Z,9.747562
2023-03-16T01:34:43.031Z,9.747502
2023-03-16T01:35:43.033Z,9.747455
2023-03-16T01:36:42.987Z,9.747493
2023-03-16T01:37:42.982Z,9.747437
2023-03-16T01:38:42.976Z,9.747459
2023-03-16T01:39:43.033Z,9.747434
2023-03-16T01:40:42.962Z,9.747433
2023-03-16T01:41:42.963Z,9.747487
2023-03-16T01:42:42.947Z,9.747412
2023-03-16T01:43:42.950Z,9.747486
2023-03-16T01:44:42.970Z,9.747497
2023-03-16T01:45:42.928Z,9.747569
2023-03-16T01:46:42.917Z,9.747472
2023-03-16T01:47:42.905Z,9.747437
2023-03-16T01:48:42.902Z,9.747373
2023-03-16T01:49:42.922Z,9.747400
2023-03-16T01:50:42.904Z,9.747441
2023-03-16T01:51:42.885Z,9.747446
2023-03-16T01:52:42.920Z,9.747480
2023-03-16T01:53:42.885Z,9.747414
2023-03-16T01:54:42.906Z,9.747346
2023-03-16T01:55:42.864Z,9.747445
2023-03-16T01:56:42.861Z,9.747550
2023-03-16T01:57:42.873Z,9.747485
2023-03-16T01:58:42.838Z,9.747456
2023-03-16T01:59:42.857Z,9.747454
2023-03-16T02:00:42.835Z,9.747529
2023-03-16T02:01:42.864Z,9.747596
2023-03-16T02:02:42.816Z,9.747416
2023-03-16T02:03:42.913Z,9.747563
2023-03-16T02:04:42.943Z,9.747458
2023-03-16T02:05:42.778Z,9.747491
2023-03-16T02:06:42.773Z,9.747370
2023-03-16T02:07:42.776Z,9.747384
2023-03-16T02:08:42.792Z,9.747438
2023-03-16T02:09:42.812Z,9.747443
2023-03-16T02:10:42.757Z,9.747529
2023-03-16T02:11:42.746Z,9.747455
2023-03-16T02:12:42.742Z,9.747351
2023-03-16T02:13:42.732Z,9.747293
2023-03-16T02:14:42.741Z,9.747259
2023-03-16T02:15:42.783Z,9.747241
2023-03-16T02:16:42.712Z,9.747160
2023-03-16T02:17:42.705Z,9.747293
2023-03-16T02:18:42.710Z,9.747430
2023-03-16T02:19:42.753Z,9.747385
2023-03-16T02:20:42.677Z,9.747453
2023-03-16T02:21:42.713Z,9.747460
2023-03-16T02:22:42.670Z,9.747500
2023-03-16T02:23:42.658Z,9.747377
2023-03-16T02:24:42.697Z,9.747357
2023-03-16T02:25:42.672Z,9.747342
2023-03-16T02:26:42.643Z,9.747450
2023-03-16T02:27:42.635Z,9.747437
2023-03-16T02:28:42.630Z,9.747455
2023-03-16T02:29:42.646Z,9.747443
2023-03-16T02:30:42.663Z,9.747352
2023-03-16T02:31:42.611Z,9.747321
2023-03-16T02:32:42.647Z,9.747411
2023-03-16T02:33:42.589Z,9.747392
2023-03-16T02:34:42.650Z,9.747404
2023-03-16T02:35:42.617Z,9.747453
2023-03-16T02:36:42.574Z,9.747316
2023-03-16T02:37:42.569Z,9.747392
2023-03-16T02:38:42.549Z,9.747356
2023-03-16T02:39:42.567Z,9.747429
2023-03-16T02:40:42.570Z,9.747568
2023-03-16T02:41:42.528Z,9.747459
2023-03-16T02:42:42.536Z,9.747489
2023-03-16T02:43:42.519Z,9.747437
2023-03-16T02:44:42.544Z,9.747523
2023-03-16T02:45:42.501Z,9.747458
2023-03-16T02:46:42.519Z,9.747495
2023-03-16T02:47:42.515Z,9.747276
2023-03-16T02:48:42.483Z,9.747411
2023-03-16T02:49:42.488Z,9.747437
2023-03-16T02:50:42.491Z,9.747568
2023-03-16T02:51:42.458Z,9.747510
2023-03-16T02:52:42.439Z,9.747506
2023-03-16T02:53:42.437Z,9.747440
2023-03-16T02:54:42.442Z,9.747519
2023-03-16T02:55:42.448Z,9.747443
2023-03-16T02:56:42.430Z,9.747460
2023-03-16T02:57:42.407Z,9.747524
2023-03-16T02:58:42.408Z,9.747304
2023-03-16T02:59:42.406Z,9.747472
2023-03-16T03:00:42.443Z,9.747478
2023-03-16T03:01:42.379Z,9.747468
2023-03-16T03:02:42.374Z,9.747404
2023-03-16T03:03:42.413Z,9.747417
2023-03-16T03:04:42.363Z,9.747482
2023-03-16T03:05:42.377Z,9.747513
2023-03-16T03:06:42.365Z,9.747452
2023-03-16T03:07:42.357Z,9.747486
2023-03-16T03:08:42.330Z,9.747516
2023-03-16T03:09:42.340Z,9.747540
2023-03-16T03:10:42.369Z,9.747519
2023-03-16T03:11:42.306Z,9.747539
2023-03-16T03:12:42.314Z,9.747437
2023-03-16T03:13:42.295Z,9.747363
2023-03-16T03:14:42.291Z,9.747416
2023-03-16T03:15:42.333Z,9.747415
2023-03-16T03:16:42.317Z,9.747388
2023-03-16T03:17:42.269Z,9.747381
2023-03-16T03:18:42.261Z,9.747417
2023-03-16T03:19:42.255Z,9.747497
2023-03-16T03:20:42.360Z,9.747443
2023-03-16T03:21:42.239Z,9.747441
2023-03-16T03:22:42.231Z,9.747458
2023-03-16T03:23:42.223Z,9.747480
2023-03-16T03:24:42.255Z,9.747474
2023-03-16T03:25:42.234Z,9.747426
2023-03-16T03:26:42.201Z,9.747345
2023-03-16T03:27:42.211Z,9.747329
2023-03-16T03:28:42.198Z,9.747216
2023-03-16T03:29:42.166Z,9.747048
2023-03-16T03:30:43.202Z,9.747252
2023-03-16T03:31:42.185Z,9.747291
2023-03-16T03:32:42.194Z,9.747355
2023-03-16T03:33:42.148Z,9.747458
2023-03-16T03:34:42.145Z,9.747415
2023-03-16T03:35:42.262Z,9.747371
2023-03-16T03:36:42.129Z,9.747467
2023-03-16T03:37:42.116Z,9.747541
2023-03-16T03:38:42.119Z,9.747589
2023-03-16T03:39:42.106Z,9.747581
2023-03-16T03:40:42.135Z,9.747512
2023-03-16T03:41:42.088Z,9.747450
2023-03-16T03:42:42.083Z,9.747465
2023-03-16T03:43:42.101Z,9.747424
2023-03-16T03:44:42.074Z,9.747504
2023-03-16T03:45:42.230Z,9.747497
2023-03-16T03:46:42.120Z,9.747360
2023-03-16T03:47:42.062Z,9.747419
2023-03-16T03:48:42.036Z,9.747321
2023-03-16T03:49:42.033Z,9.747362
2023-03-16T03:50:42.069Z,9.747338
2023-03-16T03:51:42.021Z,9.747366
2023-03-16T03:52:42.029Z,9.747275
2023-03-16T03:53:42.001Z,9.747285
2023-03-16T03:54:41.991Z,9.747225
2023-03-16T03:55:42.011Z,9.747298
2023-03-16T03:56:42.016Z,9.747332
2023-03-16T03:57:41.975Z,9.747343
2023-03-16T03:58:41.964Z,9.747391
2023-03-16T03:59:41.956Z,9.747363
2023-03-16T04:00:41.989Z,9.747334
2023-03-16T04:01:41.941Z,9.747178
2023-03-16T04:02:42.057Z,9.747278
2023-03-16T04:03:44.097Z,9.747422
2023-03-16T04:04:41.950Z,9.747388
2023-03-16T04:05:41.951Z,9.747295
2023-03-16T04:06:41.915Z,9.747384
2023-03-16T04:07:41.891Z,9.747441
2023-03-16T04:08:41.886Z,9.747433
2023-03-16T04:09:41.894Z,9.747461
2023-03-16T04:10:41.900Z,9.747403
2023-03-16T04:11:41.871Z,9.747355
2023-03-16T04:12:41.861Z,9.747462
2023-03-16T04:13:41.878Z,9.747379
2023-03-16T04:14:41.848Z,9.747495
2023-03-16T04:15:41.865Z,9.747415
2023-03-16T04:16:41.888Z,9.747465
2023-03-16T04:17:41.828Z,9.747470
2023-03-16T04:18:41.816Z,9.747512
2023-03-16T04:19:41.824Z,9.747397
2023-03-16T04:20:41.828Z,9.747390
2023-03-16T04:21:41.793Z,9.747422
2023-03-16T04:22:41.822Z,9.747417
2023-03-16T04:23:41.787Z,9.747402
2023-03-16T04:24:41.773Z,9.747356
2023-03-16T04:25:41.794Z,9.747451
2023-03-16T04:26:41.768Z,9.747496
2023-03-16T04:27:41.792Z,9.747495
2023-03-16T04:28:41.746Z,9.747396
2023-03-16T04:29:41.749Z,9.747360
2023-03-16T04:30:41.809Z,9.747263
2023-03-16T04:31:41.715Z,9.747119
2023-03-16T04:32:41.817Z,9.747145
2023-03-16T04:33:41.711Z,9.747223
2023-03-16T04:34:41.731Z,9.747331
2023-03-16T04:35:41.787Z,9.747313
2023-03-16T04:36:41.693Z,9.747305
2023-03-16T04:37:41.692Z,9.747114
2023-03-16T04:38:41.686Z,9.747223
2023-03-16T04:39:41.672Z,9.747165
2023-03-16T04:40:41.692Z,9.747240
2023-03-16T04:41:41.664Z,9.747276
2023-03-16T04:42:41.647Z,9.747360
2023-03-16T04:43:41.638Z,9.747433
2023-03-16T04:44:41.635Z,9.747354
2023-03-16T04:45:41.661Z,9.747251
2023-03-16T04:46:41.702Z,9.747275
2023-03-16T04:47:41.620Z,9.747194
2023-03-16T04:48:41.613Z,9.747263
2023-03-16T04:49:41.599Z,9.747251
2023-03-16T04:50:41.589Z,9.747248
2023-03-16T04:51:41.616Z,9.747433
2023-03-16T04:52:41.570Z,9.747390
2023-03-16T04:53:41.580Z,9.747592
2023-03-16T04:54:41.569Z,9.747393
2023-03-16T04:55:41.546Z,9.747334
2023-03-16T04:56:41.714Z,9.747231
2023-03-16T04:57:41.545Z,9.747349
2023-03-16T04:58:41.532Z,9.747443
2023-03-16T04:59:41.529Z,9.747344
2023-03-16T05:00:41.560Z,9.747213
2023-03-16T05:01:41.678Z,9.747130
2023-03-16T05:02:41.525Z,9.747227
2023-03-16T05:03:41.501Z,9.747246
2023-03-16T05:04:41.498Z,9.747437
2023-03-16T05:05:41.573Z,9.747503
2023-03-16T05:06:41.541Z,9.747438
2023-03-16T05:07:41.465Z,9.747437
2023-03-16T05:08:41.460Z,9.747239
2023-03-16T05:09:41.457Z,9.747223
2023-03-16T05:10:41.456Z,9.747291
2023-03-16T05:11:41.473Z,9.747346
2023-03-16T05:12:41.435Z,9.747477
2023-03-16T05:13:41.431Z,9.747465
2023-03-16T05:14:41.419Z,9.747524
2023-03-16T05:15:41.458Z,9.747463
2023-03-16T05:16:41.434Z,9.747425
2023-03-16T05:17:41.397Z,9.747353
2023-03-16T05:18:41.394Z,9.747410
2023-03-16T05:19:41.377Z,9.747471
2023-03-16T05:20:41.373Z,9.747404
2023-03-16T05:21:41.396Z,9.747439
2023-03-16T05:22:41.355Z,9.747391
2023-03-16T05:23:41.352Z,9.747483
2023-03-16T05:24:41.392Z,9.747441
2023-03-16T05:25:41.373Z,9.747375
2023-03-16T05:26:41.370Z,9.747459
2023-03-16T05:27:41.332Z,9.747364
2023-03-16T05:28:41.318Z,9.747438
2023-03-16T05:29:41.307Z,9.747506
2023-03-16T05:30:41.330Z,9.747478
2023-03-16T05:31:41.443Z,9.747450
2023-03-16T05:32:41.293Z,9.747446
2023-03-16T05:33:41.325Z,9.747348
2023-03-16T05:34:41.299Z,9.747410
2023-03-16T05:35:41.291Z,9.747457
2023-03-16T05:36:41.295Z,9.747476
2023-03-16T05:37:41.260Z,9.747402
2023-03-16T05:38:41.248Z,9.747555
2023-03-16T05:39:41.231Z,9.747627
2023-03-16T05:40:41.252Z,9.747787
2023-03-16T05:41:41.248Z,9.747437
2023-03-16T05:42:41.222Z,9.747339
2023-03-16T05:43:41.257Z,9.747310
2023-03-16T05:44:41.274Z,9.747429
2023-03-16T05:45:41.198Z,9.747510
2023-03-16T05:46:41.335Z,9.747481
2023-03-16T05:47:41.190Z,9.747474
2023-03-16T05:48:41.171Z,9.747603
2023-03-16T05:49:41.189Z,9.747457
2023-03-16T05:50:41.165Z,9.747491
2023-03-16T05:51:41.181Z,9.747488
2023-03-16T05:52:41.162Z,9.747525
2023-03-16T05:53:41.140Z,9.747347
2023-03-16T05:54:41.142Z,9.747514
2023-03-16T05:55:41.138Z,9.747540
2023-03-16T05:56:41.155Z,9.747500
2023-03-16T05:57:41.111Z,9.747378
2023-03-16T05:58:41.131Z,9.747211
2023-03-16T05:59:41.105Z,9.747313
2023-03-16T06:00:41.093Z,9.747424
2023-03-16T06:01:41.136Z,9.747315
2023-03-16T06:02:41.163Z,9.747353
2023-03-16T06:03:41.090Z,9.747400
2023-03-16T06:04:41.081Z,9.747509
2023-03-16T06:05:41.056Z,9.747531
2023-03-16T06:06:41.090Z,9.747388
2023-03-16T06:07:41.046Z,9.747333
2023-03-16T06:08:41.037Z,9.747382
2023-03-16T06:09:41.033Z,9.747284
2023-03-16T06:10:41.029Z,9.747424
2023-03-16T06:11:41.046Z,9.747441
2023-03-16T06:12:41.019Z,9.747475
2023-03-16T06:13:41.080Z,9.747401
2023-03-16T06:14:40.993Z,9.747382
2023-03-16T06:15:40.980Z,9.747336
2023-03-16T06:16:41.136Z,9.747352
2023-03-16T06:17:40.976Z,9.747497
2023-03-16T06:18:40.974Z,9.747549
2023-03-16T06:19:40.947Z,9.747498
2023-03-16T06:20:40.945Z,9.747309
2023-03-16T06:21:40.978Z,9.747309
2023-03-16T06:22:40.929Z,9.747339
2023-03-16T06:23:40.923Z,9.747572
2023-03-16T06:24:41.022Z,9.747396
2023-03-16T06:25:40.914Z,9.747768
2023-03-16T06:26:40.923Z,9.747191
2023-03-16T06:27:40.893Z,9.747239
2023-03-16T06:28:40.890Z,9.747619
2023-03-16T06:29:40.890Z,9.747897
2023-03-16T06:30:40.881Z,9.748175
2023-03-16T06:31:41.023Z,9.748109
2023-03-16T06:32:40.872Z,9.747718
2023-03-16T06:33:40.873Z,9.747618
2023-03-16T06:34:40.853Z,9.747583
2023-03-16T06:35:40.876Z,9.747477
2023-03-16T06:36:40.858Z,9.747511
2023-03-16T06:37:40.823Z,9.747541
2023-03-16T06:38:40.826Z,9.747633
2023-03-16T06:39:41.722Z,9.747857
2023-03-16T06:40:40.813Z,9.747670
2023-03-16T06:41:40.894Z,9.747369
2023-03-16T06:42:40.797Z,9.747643
2023-03-16T06:43:40.793Z,9.747437
2023-03-16T06:44:40.784Z,9.747557
2023-03-16T06:45:40.796Z,9.747490
2023-03-16T06:46:40.806Z,9.747571
2023-03-16T06:47:40.777Z,9.747595
2023-03-16T06:48:40.751Z,9.747536
2023-03-16T06:49:40.764Z,9.747429
2023-03-16T06:50:40.762Z,9.747399
2023-03-16T06:51:40.756Z,9.747514
2023-03-16T06:52:40.724Z,9.747593
2023-03-16T06:53:40.726Z,9.747404
2023-03-16T06:54:40.724Z,9.747504
2023-03-16T06:55:40.705Z,9.747512
2023-03-16T06:56:40.740Z,9.747389
2023-03-16T06:57:40.704Z,9.747418
2023-03-16T06:58:40.690Z,9.747519
2023-03-16T06:59:40.820Z,9.747400
2023-03-16T07:00:40.669Z,9.747396
2023-03-16T07:01:40.680Z,9.747660
2023-03-16T07:02:40.652Z,9.747555
2023-03-16T07:03:40.646Z,9.747571
2023-03-16T07:04:40.681Z,9.747532
2023-03-16T07:05:40.651Z,9.747639
2023-03-16T07:06:40.672Z,9.747581
2023-03-16T07:07:40.611Z,9.747519
2023-03-16T07:08:40.642Z,9.747605
2023-03-16T07:09:41.880Z,9.747620
2023-03-16T07:10:41.590Z,9.747642
2023-03-16T07:11:40.611Z,9.747776
2023-03-16T07:12:40.578Z,9.747625
2023-03-16T07:13:40.573Z,9.747560
2023-03-16T07:14:40.579Z,9.747656
2023-03-16T07:15:40.560Z,9.747570
2023-03-16T07:16:40.639Z,9.747588
2023-03-16T07:17:40.574Z,9.747583
2023-03-16T07:18:40.531Z,9.747586
2023-03-16T07:19:40.527Z,9.747631
2023-03-16T07:20:40.519Z,9.747617
2023-03-16T07:21:40.542Z,9.747572
2023-03-16T07:22:40.575Z,9.747486
2023-03-16T07:23:40.500Z,9.747451
2023-03-16T07:24:40.488Z,9.747460
2023-03-16T07:25:40.474Z,9.747462
2023-03-16T07:26:40.482Z,9.747442
2023-03-16T07:27:40.490Z,9.747478
2023-03-16T07:28:40.459Z,9.747482
2023-03-16T07:29:40.449Z,9.747436
2023-03-16T07:30:41.345Z,9.747501
2023-03-16T07:31:40.471Z,9.747592
2023-03-16T07:32:40.476Z,9.747467
2023-03-16T07:33:40.422Z,9.747503
2023-03-16T07:34:40.612Z,9.747537
2023-03-16T07:35:40.556Z,9.747492
2023-03-16T07:36:40.425Z,9.747501
2023-03-16T07:37:40.420Z,9.747383
2023-03-16T07:38:40.375Z,9.747434
2023-03-16T07:39:40.375Z,9.747456
2023-03-16T07:40:40.374Z,9.747531
2023-03-16T07:41:40.395Z,9.747435
2023-03-16T07:42:40.412Z,9.747661
2023-03-16T07:43:40.354Z,9.747516
2023-03-16T07:44:40.337Z,9.747439
2023-03-16T07:45:40.378Z,9.747368
2023-03-16T07:46:40.318Z,9.747256
2023-03-16T07:47:40.475Z,9.747237
2023-03-16T07:48:40.312Z,9.747279
2023-03-16T07:49:40.296Z,9.747234
2023-03-16T07:50:40.282Z,9.747297
2023-03-16T07:51:40.271Z,9.747271
2023-03-16T07:52:40.346Z,9.747260
2023-03-16T07:53:40.266Z,9.747280
2023-03-16T07:54:40.258Z,9.747520
2023-03-16T07:55:40.260Z,9.747354
2023-03-16T07:56:48.965Z,9.747355
2023-03-16T07:57:42.264Z,9.747294
2023-03-16T07:58:40.227Z,9.747299
2023-03-16T07:59:40.216Z,9.747409
2023-03-16T08:00:40.222Z,9.747344
2023-03-16T08:01:40.218Z,9.747232
2023-03-16T08:02:40.294Z,9.747231
2023-03-16T08:03:40.220Z,9.747295
2023-03-16T08:04:40.183Z,9.747297
2023-03-16T08:05:40.167Z,9.747419
2023-03-16T08:06:40.164Z,9.747334
2023-03-16T08:07:40.184Z,9.747506
2023-03-16T08:08:40.157Z,9.747458
2023-03-16T08:09:40.169Z,9.747297
2023-03-16T08:10:40.138Z,9.747565
2023-03-16T08:11:40.135Z,9.747464
2023-03-16T08:12:40.236Z,9.747413
2023-03-16T08:13:40.118Z,9.747334
2023-03-16T08:14:41.113Z,9.747323
2023-03-16T08:15:40.219Z,9.747458
2023-03-16T08:16:40.125Z,9.747373
2023-03-16T08:17:40.123Z,9.747373
2023-03-16T08:18:40.074Z,9.747355
2023-03-16T08:19:40.075Z,9.747354
2023-03-16T08:20:40.095Z,9.747313
2023-03-16T08:21:57.497Z,9.747360
2023-03-16T08:22:42.095Z,9.747355
2023-03-16T08:23:40.062Z,9.747295
2023-03-16T08:24:40.054Z,9.747306
2023-03-16T08:25:40.038Z,9.747373
2023-03-16T08:26:40.058Z,9.747229
2023-03-16T08:27:40.071Z,9.747312
2023-03-16T08:28:40.071Z,9.747364
2023-03-16T08:29:40.030Z,9.747293
2023-03-16T08:30:40.003Z,9.747349
2023-03-16T08:31:40.147Z,9.747060
2023-03-16T08:32:40.204Z,9.747238
2023-03-16T08:33:39.980Z,9.747353
2023-03-16T08:34:40.046Z,9.747169
2023-03-16T08:35:39.992Z,9.747040
2023-03-16T08:36:40.025Z,9.747487
2023-03-16T08:37:39.981Z,9.747343
2023-03-16T08:38:39.945Z,9.747346
2023-03-16T08:39:39.919Z,9.747380
2023-03-16T08:40:39.929Z,9.747288
2023-03-16T08:41:39.912Z,9.747334
2023-03-16T08:42:39.943Z,9.747447
2023-03-16T08:43:39.912Z,9.747363
2023-03-16T08:44:39.903Z,9.747293
2023-03-16T08:45:39.882Z,9.747347
2023-03-16T08:46:39.946Z,9.747428
2023-03-16T08:47:39.922Z,9.747307
2023-03-16T08:48:39.862Z,9.747301
2023-03-16T08:49:39.844Z,9.747335
2023-03-16T08:50:39.840Z,9.747305
2023-03-16T08:51:39.837Z,9.747382
2023-03-16T08:52:39.848Z,9.747315
2023-03-16T08:53:39.815Z,9.747340
2023-03-16T08:54:39.819Z,9.747288
2023-03-16T08:55:39.809Z,9.747153
2023-03-16T08:56:39.797Z,9.747280
2023-03-16T08:57:39.815Z,9.747341
2023-03-16T08:58:39.777Z,9.747473
2023-03-16T08:59:39.772Z,9.747470
2023-03-16T09:00:39.766Z,9.747418
2023-03-16T09:01:39.802Z,9.747396
2023-03-16T09:02:39.787Z,9.747369
2023-03-16T09:03:39.776Z,9.747406
2023-03-16T09:04:39.771Z,9.747334
2023-03-16T09:05:39.751Z,9.747302
2023-03-16T09:06:39.798Z,9.747357
2023-03-16T09:07:39.783Z,9.747390
2023-03-16T09:08:39.829Z,9.747445
2023-03-16T09:09:39.693Z,9.747406
2023-03-16T09:10:39.688Z,9.747435
2023-03-16T09:11:39.684Z,9.747343
2023-03-16T09:12:39.697Z,9.747406
2023-03-16T09:13:39.660Z,9.747271
2023-03-16T09:14:39.656Z,9.747300
2023-03-16T09:15:39.656Z,9.747310
2023-03-16T09:16:39.746Z,9.747348
2023-03-16T09:17:39.673Z,9.747357
2023-03-16T09:18:39.634Z,9.747351
2023-03-16T09:19:54.482Z,9.747276
2023-03-16T09:20:41.653Z,9.747344
2023-03-16T09:21:39.602Z,9.747235
2023-03-16T09:22:39.623Z,9.747294
2023-03-16T09:23:39.594Z,9.747276
2023-03-16T09:24:39.583Z,9.747253
2023-03-16T09:25:39.575Z,9.747160
2023-03-16T09:26:39.636Z,9.747265
2023-03-16T09:27:39.585Z,9.747267
2023-03-16T09:28:39.552Z,9.747290
2023-03-16T09:29:39.543Z,9.747420
2023-03-16T09:30:39.541Z,9.747255
2023-03-16T09:31:39.567Z,9.747303
2023-03-16T09:32:39.672Z,9.747350
2023-03-16T09:33:40.239Z,9.747387
2023-03-16T09:34:39.511Z,9.747375
2023-03-16T09:35:39.529Z,9.747341
2023-03-16T09:36:39.494Z,9.747486
2023-03-16T09:37:45.699Z,9.747374
2023-03-16T09:38:41.472Z,9.747373
2023-03-16T09:39:40.500Z,9.747295
2023-03-16T09:40:39.517Z,9.747341
2023-03-16T09:41:39.485Z,9.747355
2023-03-16T09:42:39.447Z,9.747347
2023-03-16T09:43:39.442Z,9.747410
2023-03-16T09:44:39.439Z,9.747405
2023-03-16T09:45:39.511Z,9.747362
2023-03-16T09:46:39.429Z,9.747416
2023-03-16T09:47:39.455Z,9.747426
2023-03-16T09:48:39.442Z,9.747409
2023-03-16T09:49:39.453Z,9.747375
2023-03-16T09:50:48.287Z,9.747274
2023-03-16T09:51:41.378Z,9.747260
2023-03-16T09:52:39.393Z,9.747342
2023-03-16T09:53:39.377Z,9.747400
2023-03-16T09:54:39.396Z,9.747346
2023-03-16T09:55:39.357Z,9.747330
2023-03-16T09:56:39.412Z,9.747348
2023-03-16T09:57:39.345Z,9.747424
2023-03-16T09:58:39.338Z,9.747340
2023-03-16T09:59:39.318Z,9.747275
2023-03-16T10:00:39.337Z,9.747359
2023-03-16T10:01:39.302Z,9.747449
2023-03-16T10:02:39.311Z,9.747441
2023-03-16T10:03:39.333Z,9.747432
2023-03-16T10:04:39.319Z,9.747384
2023-03-16T10:05:39.288Z,9.747483
2023-03-16T10:06:39.298Z,9.747349
2023-03-16T10:07:39.264Z,9.747316
2023-03-16T10:08:39.267Z,9.747267
2023-03-16T10:09:39.250Z,9.747459
2023-03-16T10:10:39.243Z,9.747545
2023-03-16T10:11:39.265Z,9.747578
2023-03-16T10:12:39.237Z,9.747436
2023-03-16T10:13:39.213Z,9.747343
2023-03-16T10:14:39.247Z,9.747510
2023-03-16T10:15:39.208Z,9.747408
2023-03-16T10:16:39.301Z,9.747472
2023-03-16T10:17:39.190Z,9.747483
2023-03-16T10:18:39.177Z,9.747468
2023-03-16T10:19:39.183Z,9.747582
2023-03-16T10:20:39.168Z,9.747551
2023-03-16T10:21:39.188Z,9.747553
2023-03-16T10:22:39.151Z,9.747498
2023-03-16T10:23:40.928Z,9.747438
2023-03-16T10:24:40.142Z,9.747705
2023-03-16T10:25:39.129Z,9.747577
2023-03-16T10:26:39.211Z,9.747477
2023-03-16T10:27:39.120Z,9.747405
2023-03-16T10:28:39.097Z,9.747540
2023-03-16T10:29:39.116Z,9.747652
2023-03-16T10:30:39.092Z,9.747650
2023-03-16T10:31:39.130Z,9.747598
2023-03-16T10:32:39.109Z,9.747651
2023-03-16T10:33:39.068Z,9.747613
2023-03-16T10:34:39.058Z,9.747694
2023-03-16T10:35:39.048Z,9.747579
2023-03-16T10:36:39.102Z,9.747618
2023-03-16T10:37:39.038Z,9.747540
2023-03-16T10:38:39.053Z,9.747450
2023-03-16T10:39:39.019Z,9.747520
2023-03-16T10:40:39.005Z,9.747464
2023-03-16T10:41:39.123Z,9.747517
2023-03-16T10:42:39.069Z,9.747478
2023-03-16T10:43:38.999Z,9.747433
2023-03-16T10:44:39.046Z,9.747513
2023-03-16T10:45:39.113Z,9.747621
2023-03-16T10:46:39.129Z,9.747432
2023-03-16T10:47:38.959Z,9.747533
2023-03-16T10:48:38.948Z,9.747458
2023-03-16T10:49:41.419Z,9.747492
2023-03-16T10:50:39.002Z,9.747641
2023-03-16T10:51:39.046Z,9.747554
2023-03-16T10:52:38.946Z,9.747525
2023-03-16T10:53:38.925Z,9.747531
2023-03-16T10:54:38.906Z,9.747441
2023-03-16T10:55:38.897Z,9.747521
2023-03-16T10:56:38.920Z,9.747526
2023-03-16T10:57:38.889Z,9.747452
2023-03-16T10:58:38.886Z,9.747692
2023-03-16T10:59:38.885Z,9.747519
2023-03-16T11:00:38.864Z,9.747431
2023-03-16T11:01:38.989Z,9.747434
2023-03-16T11:02:39.888Z,9.747488
2023-03-16T11:03:38.904Z,9.747528
2023-03-16T11:04:38.900Z,9.747522
2023-03-16T11:05:38.862Z,9.747578
2023-03-16T11:06:38.825Z,9.747581
2023-03-16T11:07:38.857Z,9.747589
2023-03-16T11:08:38.844Z,9.747418
2023-03-16T11:09:38.798Z,9.747406
2023-03-16T11:10:49.541Z,9.747451
2023-03-16T11:11:40.815Z,9.747494
2023-03-16T11:12:38.832Z,9.747438
2023-03-16T11:13:38.829Z,9.747639
2023-03-16T11:14:38.924Z,9.747579
2023-03-16T11:15:38.760Z,9.747407
2023-03-16T11:16:38.816Z,9.747531
2023-03-16T11:17:38.806Z,9.747384
2023-03-16T11:18:38.737Z,9.747558
2023-03-16T11:19:38.756Z,9.747589
2023-03-16T11:20:38.770Z,9.747504
2023-03-16T11:21:38.806Z,9.747442
2023-03-16T11:22:38.722Z,9.747427
2023-03-16T11:23:38.729Z,9.747495
2023-03-16T11:24:38.851Z,9.747507
2023-03-16T11:25:38.693Z,9.747479
2023-03-16T11:26:38.674Z,9.747377
2023-03-16T11:27:38.715Z,9.747526
2023-03-16T11:28:38.668Z,9.747627
2023-03-16T11:29:38.640Z,9.747546
2023-03-16T11:30:38.679Z,9.747506
2023-03-16T11:31:38.629Z,9.747635
2023-03-16T11:32:38.777Z,9.747581
2023-03-16T11:33:38.624Z,9.747426
2023-03-16T11:34:38.612Z,9.747493
2023-03-16T11:35:44.064Z,9.747431
2023-03-16T11:36:40.585Z,9.747510
2023-03-16T11:37:38.620Z,9.747448
2023-03-16T11:38:38.562Z,9.747535
2023-03-16T11:39:38.559Z,9.747577
2023-03-16T11:40:38.549Z,9.747619
2023-03-16T11:41:38.554Z,9.747568
2023-03-16T11:42:38.576Z,9.747474
2023-03-16T11:43:38.543Z,9.747502
2023-03-16T11:44:38.558Z,9.747462